Time;durP1;ratioP1;P1;durP2;ratioP2;P2;SDS_P1;SDS_P2;PMS_P1;PMS_P2;Temp;Humidity;BMP_temperature;BMP_pressure;BME280_temperature;BME280_humidity;BME280_pressure;Samples;Min_cycle;Max_cycle;Signal;HPM_P1;HPM_P2
2022/06/17 00:00:28;;;;;;;37.67;22.65;;;;;;;13.96;85.05;102232.41;5113357;28;20020;-47
2022/06/17 00:02:53;;;;;;;34.70;23.88;;;;;;;13.97;84.47;102231.59;5112482;28;20027;-49
2022/06/17 00:05:19;;;;;;;38.13;22.85;;;;;;;13.95;84.29;102218.53;5113502;28;20079;-50
2022/06/17 00:07:45;;;;;;;37.25;23.70;;;;;;;13.98;84.06;102216.09;5113552;28;20508;-49
2022/06/17 00:10:23;;;;;;;40.25;24.65;;;;;;;13.98;83.44;102225.56;5112415;28;20023;-50
2022/06/17 00:12:49;;;;;;;38.20;23.52;;;;;;;13.93;83.93;102220.22;5113333;28;20490;-49
2022/06/17 00:15:15;;;;;;;36.67;22.80;;;;;;;13.90;83.82;102224.41;5112368;28;20577;-49
2022/06/17 00:17:45;;;;;;;31.35;21.67;;;;;;;13.77;83.83;102213.53;5113250;28;20035;-49
2022/06/17 00:20:14;;;;;;;37.47;23.73;;;;;;;13.68;84.53;102213.19;5113199;28;20076;-48
2022/06/17 00:22:42;;;;;;;43.75;26.13;;;;;;;13.62;85.24;102224.22;5112530;28;20435;-49
2022/06/17 00:25:21;;;;;;;40.90;27.27;;;;;;;13.61;85.08;102234.53;5114270;28;20026;-49
2022/06/17 00:27:47;;;;;;;44.88;28.20;;;;;;;13.61;85.91;102231.94;5117379;28;20028;-49
2022/06/17 00:30:17;;;;;;;42.72;29.45;;;;;;;13.59;85.78;102229.25;5116622;28;20034;-50
2022/06/17 00:32:42;;;;;;;47.83;29.23;;;;;;;13.56;85.22;102236.06;5117463;28;20023;-50
2022/06/17 00:35:09;;;;;;;48.63;27.63;;;;;;;13.56;85.53;102233.47;5117080;28;20027;-50
2022/06/17 00:37:34;;;;;;;49.03;28.20;;;;;;;13.61;86.39;102227.63;5116514;28;20029;-50
2022/06/17 00:39:59;;;;;;;42.25;28.05;;;;;;;13.71;86.97;102228.88;5117029;28;20106;-50
2022/06/17 00:42:25;;;;;;;48.75;29.83;;;;;;;13.71;86.76;102233.16;5117100;28;20073;-50
2022/06/17 00:45:08;;;;;;;42.78;28.33;;;;;;;13.69;85.25;102233.09;5116170;28;20020;-50
2022/06/17 00:48:01;;;;;;;44.75;27.80;;;;;;;13.72;84.52;102246.16;5117500;28;20058;-47
2022/06/17 00:50:39;;;;;;;39.97;27.00;;;;;;;13.70;84.34;102237.47;5116232;28;20441;-46
2022/06/17 00:53:23;;;;;;;39.15;25.38;;;;;;;13.69;83.97;102229.66;5116859;28;20023;-50
2022/06/17 00:56:01;;;;;;;41.78;26.83;;;;;;;13.70;84.68;102224.50;5117100;28;20035;-47
2022/06/17 00:58:30;;;;;;;;;;;;;;;13.75;81.63;102224.69;5116131;28;20436;-50
2022/06/17 01:00:59;;;;;;;51.17;30.70;;;;;;;13.71;85.47;102234.06;5116830;28;19912;-49
2022/06/17 01:03:32;;;;;;;50.78;31.35;;;;;;;13.70;85.44;102240.06;5116609;28;20370;-49
2022/06/17 01:06:18;;;;;;;41.47;28.80;;;;;;;13.70;84.48;102232.28;5115965;28;20077;-48
2022/06/17 01:11:34;;;;;;;48.60;30.35;;;;;;;13.47;85.50;102229.66;5116107;28;20039;-48
2022/06/17 01:14:05;;;;;;;53.63;33.78;;;;;;;13.41;86.38;102228.53;5116659;28;20027;-50
2022/06/17 01:16:35;;;;;;;54.38;33.85;;;;;;;13.34;86.77;102235.16;5116623;28;20084;-50
2022/06/17 01:19:08;;;;;;;54.20;35.38;;;;;;;13.31;86.97;102232.41;5115526;28;20455;-49
2022/06/17 01:21:43;;;;;;;54.72;34.75;;;;;;;13.30;86.64;102231.53;5116493;28;20027;-50
2022/06/17 01:24:09;;;;;;;53.17;34.17;;;;;;;13.32;87.37;102226.44;5116040;28;20490;-49
2022/06/17 01:26:35;;;;;;;53.10;35.28;;;;;;;13.31;87.07;102227.25;5115533;28;20459;-50
2022/06/17 01:29:00;;;;;;;51.72;32.63;;;;;;;13.30;86.98;102220.31;5116340;28;20060;-49
2022/06/17 01:31:26;;;;;;;48.50;33.65;;;;;;;13.20;86.85;102218.19;5116133;28;20038;-50
2022/06/17 01:33:51;;;;;;;50.88;32.72;;;;;;;13.21;86.26;102222.50;5115347;28;20020;-49
2022/06/17 01:36:24;;;;;;;49.25;32.05;;;;;;;13.23;87.00;102218.28;5115194;28;20152;-49
2022/06/17 01:38:52;;;;;;;50.60;33.58;;;;;;;13.17;86.95;102212.03;5115851;28;20038;-49
2022/06/17 01:41:23;;;;;;;52.35;32.53;;;;;;;13.18;87.40;102216.41;5115464;28;20023;-48
2022/06/17 01:44:04;;;;;;;48.90;30.85;;;;;;;13.17;86.27;102217.22;5116009;28;20375;-49
2022/06/17 01:46:40;;;;;;;52.55;30.02;;;;;;;13.08;86.57;102222.03;5115273;28;20031;-50
2022/06/17 01:49:16;;;;;;;46.88;31.70;;;;;;;13.07;86.92;102227.16;5115752;28;20095;-50
2022/06/17 01:51:47;;;;;;;54.40;33.67;;;;;;;13.02;87.46;102232.13;5116023;28;20030;-50
2022/06/17 01:54:20;;;;;;;51.78;34.95;;;;;;;13.01;87.18;102235.50;5114893;28;20028;-50
2022/06/17 01:56:48;;;;;;;48.08;33.00;;;;;;;13.02;87.57;102232.13;5115700;28;20134;-50
2022/06/17 01:59:32;;;;;;;51.33;31.58;;;;;;;13.00;86.66;102233.75;5115521;28;20028;-49
2022/06/17 02:02:01;;;;;;;52.38;34.17;;;;;;;13.03;88.06;102241.66;5114938;28;20035;-47
2022/06/17 02:04:32;;;;;;;57.53;35.00;;;;;;;13.06;87.96;102236.59;5115937;28;20046;-50
2022/06/17 02:07:00;;;;;;;55.35;34.42;;;;;;;13.16;87.78;102230.09;5115479;28;20027;-49
2022/06/17 02:09:25;;;;;;;58.30;33.92;;;;;;;13.22;87.65;102237.22;5114700;28;20031;-49
2022/06/17 02:11:52;;;;;;;53.08;32.88;;;;;;;13.22;87.24;102222.59;5115282;28;20020;-49
2022/06/17 02:14:17;;;;;;;52.97;32.67;;;;;;;13.20;87.62;102229.41;5115306;28;20039;-50
2022/06/17 02:16:47;;;;;;;48.83;30.88;;;;;;;13.22;87.13;102222.59;5114410;28;20020;-50
2022/06/17 02:19:12;;;;;;;49.85;32.40;;;;;;;13.19;87.24;102230.22;5115308;28;20028;-50
2022/06/17 02:21:53;;;;;;;53.17;31.55;;;;;;;13.18;86.87;102237.13;5114641;28;20054;-49
2022/06/17 02:24:20;;;;;;;48.15;32.55;;;;;;;13.14;87.10;102227.47;5115202;28;20028;-50
2022/06/17 02:26:47;;;;;;;45.28;30.73;;;;;;;13.11;87.09;102224.72;5115111;28;20036;-48
2022/06/17 02:29:13;;;;;;;49.70;32.25;;;;;;;13.11;86.56;102224.72;5114201;28;20028;-49
2022/06/17 02:31:41;;;;;;;47.50;31.52;;;;;;;13.09;86.67;102231.56;5115060;28;20019;-49
2022/06/17 02:34:09;;;;;;;47.55;30.88;;;;;;;12.99;86.82;102232.88;5114642;28;20467;-49
2022/06/17 02:36:45;;;;;;;55.28;33.58;;;;;;;13.00;86.64;102221.69;5114252;28;20028;-50
2022/06/17 02:39:13;;;;;;;54.28;32.88;;;;;;;13.00;87.77;102225.97;5114713;28;20026;-50
2022/06/17 02:41:40;;;;;;;45.40;30.88;;;;;;;12.96;87.41;102221.50;5114831;28;20507;-46
2022/06/17 02:44:14;;;;;;;47.00;30.83;;;;;;;12.95;87.71;102223.22;5114103;28;20027;-50
2022/06/17 02:46:42;;;;;;;49.42;31.05;;;;;;;12.92;87.96;102225.66;5114939;28;20028;-49
2022/06/17 02:49:14;;;;;;;47.80;31.85;;;;;;;12.90;87.31;102223.81;5114284;28;20462;-48
2022/06/17 02:51:42;;;;;;;47.78;31.75;;;;;;;12.86;87.14;102222.84;5113906;28;20077;-50
2022/06/17 02:54:09;;;;;;;;;;;;;;;12.93;84.52;102222.25;5115082;28;20107;-50
2022/06/17 02:56:35;;;;;;;;;;;;;;;12.93;83.78;102223.97;5114973;28;19957;-49
2022/06/17 02:59:13;;;;;;;48.50;32.33;;;;;;;12.81;86.73;102225.22;5113521;28;19950;-49
2022/06/17 03:01:41;;;;;;;50.58;32.55;;;;;;;12.75;87.40;102224.06;5114548;28;20028;-49
2022/06/17 03:04:19;;;;;;;57.00;36.05;;;;;;;12.76;87.53;102223.25;5113371;28;20023;-50
2022/06/17 03:06:46;;;;;;;55.30;34.53;;;;;;;12.74;87.54;102214.53;5114345;28;20524;-48
2022/06/17 03:09:27;;;;;;;55.17;34.22;;;;;;;12.79;87.44;102220.78;5114291;28;20061;-50
2022/06/17 03:11:58;;;;;;;55.38;33.53;;;;;;;12.78;87.42;102225.09;5113316;28;20051;-49
2022/06/17 03:14:28;;;;;;;48.90;32.90;;;;;;;12.79;88.28;102221.66;5114064;28;20023;-49
2022/06/17 03:16:55;;;;;;;57.47;35.45;;;;;;;12.80;88.62;102223.44;5114171;28;20028;-49
2022/06/17 03:19:23;;;;;;;52.08;32.03;;;;;;;12.77;87.72;102225.91;5113440;28;20031;-50
2022/06/17 03:21:48;;;;;;;52.35;33.05;;;;;;;12.75;87.72;102229.25;5114242;28;20083;-50
2022/06/17 03:24:24;;;;;;;54.78;32.50;;;;;;;12.74;87.84;102235.22;5113790;28;20035;-49
2022/06/17 03:26:57;;;;;;;51.85;32.47;;;;;;;12.70;88.31;102236.78;5113096;28;20032;-45
2022/06/17 03:29:24;;;;;;;46.28;32.50;;;;;;;12.66;88.73;102240.94;5113787;28;20023;-49
2022/06/17 03:31:57;;;;;;;51.92;32.53;;;;;;;12.72;88.66;102242.03;5113866;28;20107;-50
2022/06/17 03:34:33;;;;;;;57.08;36.15;;;;;;;12.72;88.25;102245.53;5113946;28;20016;-50
2022/06/17 03:37:08;;;;;;;51.83;34.88;;;;;;;12.78;88.23;102256.13;5113648;28;20470;-49
2022/06/17 03:39:40;;;;;;;52.63;33.50;;;;;;;12.83;88.40;102248.56;5112943;28;20024;-50
2022/06/17 03:42:29;;;;;;;51.70;33.97;;;;;;;12.94;87.12;102254.22;5113815;28;20015;-50
2022/06/17 03:45:09;;;;;;;53.10;33.58;;;;;;;13.01;87.20;102262.31;5113675;28;20027;-50
2022/06/17 03:47:48;;;;;;;58.47;36.78;;;;;;;13.17;87.63;102257.75;5112956;28;20028;-50
2022/06/17 03:50:26;;;;;;;54.35;34.15;;;;;;;13.26;87.95;102259.81;5113298;28;20024;-50
2022/06/17 03:52:57;;;;;;;56.10;36.50;;;;;;;13.32;88.53;102260.09;5113390;28;20375;-50
2022/06/17 03:55:23;;;;;;;54.35;35.08;;;;;;;13.40;87.75;102261.34;5113169;28;20027;-48
2022/06/17 03:57:52;;;;;;;58.15;35.40;;;;;;;13.45;88.00;102257.22;5113162;28;20388;-49
2022/06/17 04:00:26;;;;;;;52.33;34.10;;;;;;;13.54;87.29;102255.81;5111947;28;20024;-50
2022/06/17 04:02:53;;;;;;;53.22;33.53;;;;;;;13.62;87.40;102257.00;5113443;28;20019;-49
2022/06/17 04:05:22;;;;;;;52.22;34.67;;;;;;;13.69;86.51;102251.25;5113454;28;20036;-49
2022/06/17 04:07:48;;;;;;;51.88;33.63;;;;;;;13.76;86.57;102252.34;5112712;28;20019;-48
2022/06/17 04:10:19;;;;;;;57.33;36.97;;;;;;;13.85;86.55;102250.13;5113028;28;20092;-49
2022/06/17 04:12:50;;;;;;;57.40;36.47;;;;;;;13.97;85.37;102254.91;5113263;28;20039;-49
2022/06/17 04:15:24;;;;;;;62.67;39.75;;;;;;;14.10;83.37;102253.63;5112511;28;20028;-50
2022/06/17 04:17:52;;;;;;;66.28;40.40;;;;;;;14.25;82.10;102258.53;5113268;28;20027;-50
2022/06/17 04:20:33;;;;;;;62.72;39.40;;;;;;;14.34;82.18;102253.69;5113007;28;20485;-50
2022/06/17 04:23:05;;;;;;;63.60;38.90;;;;;;;14.49;81.08;102249.03;5112228;28;20398;-48
2022/06/17 04:26:08;;;;;;;63.95;40.92;;;;;;;14.57;81.04;102238.06;5113046;28;20023;-49
2022/06/17 04:28:39;;;;;;;62.22;39.22;;;;;;;14.68;80.13;102236.78;5112294;28;20478;-50
2022/06/17 04:31:07;;;;;;;61.85;38.58;;;;;;;14.72;81.70;102229.94;5113042;28;20420;-50
2022/06/17 04:33:44;;;;;;;65.90;39.80;;;;;;;14.80;80.61;102244.97;5113092;28;20034;-49
2022/06/17 04:36:18;;;;;;;58.00;39.53;;;;;;;14.88;80.03;102246.97;5111970;28;20391;-47
2022/06/17 04:38:56;;;;;;;60.58;37.67;;;;;;;14.94;79.10;102237.66;5112947;28;20487;-49
2022/06/17 04:41:25;;;;;;;62.63;36.50;;;;;;;15.01;78.34;102228.34;5113117;28;20054;-50
2022/06/17 04:43:54;;;;;;;56.92;36.28;;;;;;;15.08;77.53;102225.16;5111937;28;20471;-50
2022/06/17 04:46:32;;;;;;;55.03;33.55;;;;;;;15.15;76.81;102224.50;5112839;28;20504;-48
2022/06/17 04:48:59;;;;;;;55.20;34.63;;;;;;;15.22;76.46;102222.09;5113038;28;20428;-50
2022/06/17 04:51:26;;;;;;;54.03;33.83;;;;;;;15.30;75.58;102223.25;5112002;28;20111;-50
2022/06/17 04:53:52;;;;;;;61.28;32.22;;;;;;;15.37;75.80;102222.59;5112900;28;20024;-50
2022/06/17 04:56:27;;;;;;;51.95;33.75;;;;;;;15.44;75.29;102218.47;5111831;28;20481;-48
2022/06/17 04:58:53;;;;;;;57.22;33.30;;;;;;;15.48;75.09;102210.84;5112648;28;20063;-49
2022/06/17 05:01:21;;;;;;;53.00;32.38;;;;;;;15.52;75.20;102216.13;5112843;28;20112;-50
2022/06/17 05:03:46;;;;;;;55.28;31.67;;;;;;;15.58;74.41;102214.63;5111957;28;20364;-49
2022/06/17 05:06:11;;;;;;;54.53;30.40;;;;;;;15.65;74.28;102213.09;5112550;28;20531;-50
2022/06/17 05:08:42;;;;;;;50.88;31.70;;;;;;;15.75;73.73;102217.72;5112826;28;20039;-49
2022/06/17 05:11:20;;;;;;;49.00;30.48;;;;;;;15.88;73.30;102221.59;5112769;28;20027;-47
2022/06/17 05:14:00;;;;;;;53.33;30.70;;;;;;;16.02;72.87;102223.72;5116865;28;20036;-50
2022/06/17 05:16:26;;;;;;;54.08;31.75;;;;;;;16.12;72.55;102215.34;5116579;28;20114;-49
2022/06/17 05:18:51;;;;;;;47.97;29.88;;;;;;;16.19;71.92;102219.00;5115493;28;20107;-50
2022/06/17 05:21:20;;;;;;;52.70;30.13;;;;;;;16.23;71.95;102210.44;5116418;28;20370;-50
2022/06/17 05:23:48;;;;;;;49.90;30.48;;;;;;;16.31;71.34;102201.16;5116268;28;20027;-50
2022/06/17 05:26:13;;;;;;;49.75;29.77;;;;;;;16.35;71.70;102207.31;5115258;28;20464;-49
2022/06/17 05:28:39;;;;;;;53.53;30.88;;;;;;;16.40;71.60;102217.00;5116379;28;20455;-50
2022/06/17 05:31:04;;;;;;;44.90;29.20;;;;;;;16.43;70.59;102218.81;5116000;28;20019;-50
2022/06/17 05:33:29;;;;;;;53.35;30.77;;;;;;;16.43;71.03;102201.47;5115371;28;20072;-50
2022/06/17 05:35:54;;;;;;;51.33;29.95;;;;;;;16.47;70.79;102205.03;5115970;28;20059;-50
2022/06/17 05:38:20;;;;;;;48.17;28.98;;;;;;;16.52;70.83;102218.19;5115980;28;20024;-50
2022/06/17 05:40:45;;;;;;;53.70;30.10;;;;;;;16.56;69.95;102225.22;5115336;28;20034;-49
2022/06/17 05:43:12;;;;;;;47.75;29.95;;;;;;;16.66;69.91;102229.84;5115904;28;20494;-50
2022/06/17 05:45:37;;;;;;;47.75;29.17;;;;;;;16.73;69.86;102221.38;5115382;28;20099;-50
2022/06/17 05:48:03;;;;;;;48.53;29.25;;;;;;;16.91;68.42;102212.28;5115811;28;20102;-50
2022/06/17 05:50:30;;;;;;;46.78;30.70;;;;;;;17.02;68.48;102208.22;5115719;28;20032;-48
2022/06/17 05:52:56;;;;;;;50.77;30.47;;;;;;;17.10;68.38;102198.84;5114901;28;20030;-49
2022/06/17 05:55:24;;;;;;;49.20;28.73;;;;;;;17.15;67.54;102203.31;5115846;28;20020;-49
2022/06/17 05:57:49;;;;;;;;;;;;;;;17.26;69.00;102199.22;5115751;28;20048;-48
2022/06/17 06:00:16;;;;;;;46.27;27.57;;;;;;;17.31;67.67;102199.34;5115097;28;19981;-49
2022/06/17 06:02:41;;;;;;;47.08;28.17;;;;;;;17.37;67.00;102208.19;5115596;28;20284;-49
2022/06/17 06:05:08;;;;;;;45.20;27.65;;;;;;;17.44;67.87;102197.06;5115388;28;20102;-48
2022/06/17 06:07:33;;;;;;;48.13;27.23;;;;;;;17.54;67.27;102194.66;5114679;28;20106;-50
2022/06/17 06:09:59;;;;;;;41.22;26.42;;;;;;;17.62;66.20;102180.06;5115571;28;20438;-50
2022/06/17 06:12:53;;;;;;;48.15;27.67;;;;;;;17.64;66.15;102165.34;5115481;28;20020;-50
2022/06/17 06:15:13;;;;;;;50.00;28.73;;;;;;;17.68;67.09;102169.75;5114098;28;20490;-49
2022/06/17 06:17:38;;;;;;;42.78;26.90;;;;;;;17.78;67.06;102176.94;5115255;28;20027;-49
2022/06/17 06:20:04;;;;;;;42.63;27.75;;;;;;;17.83;66.42;102182.25;5115130;28;20039;-50
2022/06/17 06:22:29;;;;;;;46.13;27.02;;;;;;;17.91;66.14;102183.28;5113946;28;20478;-49
2022/06/17 06:24:54;;;;;;;46.13;27.20;;;;;;;18.01;66.39;102181.78;5115154;28;20427;-49
2022/06/17 06:27:19;;;;;;;43.50;27.48;;;;;;;18.17;65.81;102180.34;5115119;28;20024;-50
2022/06/17 06:29:45;;;;;;;39.05;24.48;;;;;;;18.21;64.57;102186.50;5114368;28;20027;-47
2022/06/17 06:32:10;;;;;;;46.22;26.20;;;;;;;18.27;64.16;102195.34;5114839;28;20023;-50
2022/06/17 06:34:36;;;;;;;41.05;25.00;;;;;;;18.27;63.21;102197.09;5115027;28;20466;-50
2022/06/17 06:37:01;;;;;;;40.42;24.55;;;;;;;18.37;63.40;102199.00;5113875;28;20454;-49
2022/06/17 06:39:26;;;;;;;42.75;24.65;;;;;;;18.41;63.54;102194.72;5114825;28;20023;-49
2022/06/17 06:41:52;;;;;;;45.72;24.42;;;;;;;18.49;63.23;102198.34;5113842;28;20172;-50
2022/06/17 06:44:17;;;;;;;47.65;23.77;;;;;;;18.55;63.51;102208.03;5114803;28;20027;-50
2022/06/17 06:46:42;;;;;;;38.75;23.45;;;;;;;18.64;63.97;102208.19;5114785;28;20026;-49
2022/06/17 06:49:07;;;;;;;44.05;23.38;;;;;;;18.71;63.29;102203.97;5113624;28;20035;-51
2022/06/17 06:51:33;;;;;;;34.33;22.85;;;;;;;18.67;63.02;102200.41;5114854;28;20467;-49
2022/06/17 06:53:58;;;;;;;39.67;23.17;;;;;;;18.62;63.06;102189.00;5114812;28;20034;-49
2022/06/17 06:56:24;;;;;;;34.08;23.08;;;;;;;18.55;63.74;102190.66;5113747;28;20055;-49
2022/06/17 06:58:49;;;;;;;40.53;23.42;;;;;;;18.56;64.17;102194.13;5114708;28;20360;-47
2022/06/17 07:01:15;;;;;;;43.90;24.08;;;;;;;18.59;63.72;102204.59;5114381;28;20027;-50
2022/06/17 07:03:40;;;;;;;40.45;23.23;;;;;;;18.63;64.51;102206.44;5113613;28;20136;-49
2022/06/17 07:06:05;;;;;;;38.15;23.20;;;;;;;18.65;62.93;102206.47;5114461;28;20348;-49
2022/06/17 07:08:34;;;;;;;38.22;21.83;;;;;;;18.75;62.67;102211.88;5114482;28;20031;-50
2022/06/17 07:11:00;;;;;;;43.38;22.30;;;;;;;18.86;62.34;102213.78;5113643;28;20459;-50
2022/06/17 07:13:28;;;;;;;42.25;23.77;;;;;;;19.03;62.73;102217.59;5114526;28;20028;-51
2022/06/17 07:15:54;;;;;;;35.13;22.70;;;;;;;19.20;62.03;102214.41;5114098;28;20019;-50
2022/06/17 07:18:21;;;;;;;49.85;24.85;;;;;;;19.28;60.71;102212.75;5113113;28;20478;-48
2022/06/17 07:20:49;;;;;;;39.95;23.40;;;;;;;19.37;61.03;102202.44;5114346;28;20039;-49
2022/06/17 07:23:19;;;;;;;41.95;23.10;;;;;;;19.48;60.82;102199.97;5114118;28;20023;-50
2022/06/17 07:25:45;;;;;;;29.58;20.08;;;;;;;19.52;58.69;102190.44;5113493;28;20032;-49
2022/06/17 07:28:14;;;;;;;36.67;21.42;;;;;;;19.58;58.48;102190.53;5113794;28;20016;-49
2022/06/17 07:30:39;;;;;;;35.00;20.85;;;;;;;19.64;58.16;102190.63;5113848;28;20462;-50
2022/06/17 07:33:05;;;;;;;35.78;19.92;;;;;;;19.72;59.00;102186.34;5113173;28;20035;-49
2022/06/17 07:35:31;;;;;;;34.15;19.63;;;;;;;19.85;59.77;102186.56;5112673;28;20024;-49
2022/06/17 07:40:47;;;;;;;35.78;21.10;;;;;;;20.03;58.13;102188.53;5114260;28;20066;-49
2022/06/17 07:43:14;;;;;;;35.42;19.88;;;;;;;20.16;59.44;102193.03;5113475;28;20023;-49
2022/06/17 07:45:39;;;;;;;26.92;16.30;;;;;;;20.26;58.70;102201.88;5113096;28;20050;-48
2022/06/17 07:48:05;;;;;;;33.72;16.25;;;;;;;20.36;57.02;102206.34;5113519;28;20467;-48
2022/06/17 07:50:33;;;;;;;31.15;15.77;;;;;;;20.44;56.18;102214.28;5113586;28;20051;-50
2022/06/17 07:52:58;;;;;;;25.60;13.60;;;;;;;20.48;54.30;102209.97;5112747;28;20036;-50
2022/06/17 07:55:24;;;;;;;20.92;13.63;;;;;;;20.53;54.10;102211.75;5113656;28;20109;-50
2022/06/17 07:57:50;;;;;;;21.88;11.85;;;;;;;20.63;55.06;102202.25;5113120;28;20060;-46
2022/06/17 08:00:26;;;;;;;24.50;11.82;;;;;;;20.74;54.18;102201.50;5112587;28;20022;-50
2022/06/17 08:02:51;;;;;;;28.02;12.60;;;;;;;20.82;53.62;102198.06;5113430;28;20026;-50
2022/06/17 08:05:18;;;;;;;21.77;11.85;;;;;;;20.93;52.85;102200.78;5113243;28;20016;-50
2022/06/17 08:07:43;;;;;;;17.42;10.32;;;;;;;21.10;52.72;102198.28;5112700;28;20031;-49
2022/06/17 08:10:13;;;;;;;18.50;10.15;;;;;;;21.22;51.69;102205.34;5113076;28;20028;-47
2022/06/17 08:12:38;;;;;;;16.45;9.98;;;;;;;21.34;51.37;102213.31;5113343;28;20031;-49
2022/06/17 08:15:04;;;;;;;18.48;8.75;;;;;;;21.49;50.15;102217.78;5112536;28;20024;-50
2022/06/17 08:17:30;;;;;;;14.00;8.40;;;;;;;21.58;48.84;102222.22;5113262;28;20057;-50
2022/06/17 08:19:56;;;;;;;21.27;9.57;;;;;;;21.69;49.18;102219.66;5113241;28;20467;-50
2022/06/17 08:22:24;;;;;;;15.63;8.27;;;;;;;21.85;48.69;102225.88;5112251;28;20515;-48
2022/06/17 08:24:50;;;;;;;17.35;8.30;;;;;;;22.02;49.10;102216.31;5112951;28;20027;-48
2022/06/17 08:27:15;;;;;;;15.73;7.55;;;;;;;22.30;49.10;102219.03;5112911;28;20451;-49
2022/06/17 08:29:41;;;;;;;14.88;7.30;;;;;;;22.45;46.34;102222.59;5113053;28;20095;-50
2022/06/17 08:34:50;;;;;;;14.25;7.18;;;;;;;22.63;46.52;102209.50;5112614;28;20399;-50
2022/06/17 08:37:15;;;;;;;16.13;7.05;;;;;;;22.68;45.56;102204.22;5112984;28;20466;-51
2022/06/17 08:39:44;;;;;;;19.42;8.20;;;;;;;22.74;44.24;102200.75;5112959;28;20038;-51
2022/06/17 08:42:16;;;;;;;17.90;8.40;;;;;;;22.85;45.12;102194.63;5111910;28;20497;-50
2022/06/17 08:45:01;;;;;;;14.82;7.38;;;;;;;22.95;44.86;102192.84;5113021;28;20085;-51
2022/06/17 08:47:46;;;;;;;16.38;7.57;;;;;;;23.02;44.66;102197.22;5116461;28;20039;-51
2022/06/17 08:50:29;;;;;;;18.15;8.02;;;;;;;23.02;44.56;102191.97;5116248;28;20023;-51
2022/06/17 08:53:33;;;;;;;15.30;7.20;;;;;;;23.07;44.95;102201.59;5117115;28;20028;-47
2022/06/17 08:56:41;;;;;;;20.60;7.25;;;;;;;23.07;44.26;102207.72;5115906;28;20391;-50
2022/06/17 08:59:15;;;;;;;14.25;6.57;;;;;;;23.09;43.99;102199.84;5116540;28;20550;-49
2022/06/17 09:02:23;;;;;;;14.02;7.15;;;;;;;23.19;44.60;102206.88;5116970;28;20039;-51
2022/06/17 09:05:14;;;;;;;14.00;7.20;;;;;;;23.20;42.66;102208.63;5114488;28;20046;-50
2022/06/17 09:07:49;;;;;;;16.88;7.38;;;;;;;23.25;42.22;102211.25;5116928;28;20024;-47
2022/06/17 09:10:17;;;;;;;13.82;6.90;;;;;;;23.34;42.53;102212.13;5115813;28;20031;-48
2022/06/17 09:13:04;;;;;;;15.68;7.18;;;;;;;23.42;42.81;102219.09;5116633;28;20106;-50
2022/06/17 09:15:39;;;;;;;22.95;7.70;;;;;;;23.56;41.94;102212.03;5116696;28;20019;-50
2022/06/17 09:18:28;;;;;;;16.05;8.23;;;;;;;23.70;42.44;102190.09;5115720;28;20044;-50
2022/06/17 09:21:05;;;;;;;18.50;7.57;;;;;;;23.84;42.01;102193.53;5116495;28;20028;-50
2022/06/17 09:23:34;;;;;;;14.95;7.95;;;;;;;23.95;41.45;102178.59;5116289;28;20443;-46
2022/06/17 09:26:02;;;;;;;17.88;9.07;;;;;;;24.16;42.39;102187.25;5116338;28;20080;-51
2022/06/17 09:28:35;;;;;;;15.27;7.70;;;;;;;24.27;40.71;102190.72;5116379;28;20027;-50
2022/06/17 09:31:07;;;;;;;18.20;8.00;;;;;;;24.44;39.25;102197.59;5115433;28;20020;-50
2022/06/17 09:33:41;;;;;;;18.17;8.35;;;;;;;24.50;39.23;102200.22;5116338;28;20023;-51
2022/06/17 09:36:20;;;;;;;17.23;7.00;;;;;;;24.66;38.39;102201.00;5116264;28;20038;-49
2022/06/17 09:38:56;;;;;;;16.75;7.13;;;;;;;24.74;38.33;102195.66;5115401;28;20063;-51
2022/06/17 09:41:33;;;;;;;17.65;7.72;;;;;;;24.90;37.74;102188.50;5116329;28;20099;-48
2022/06/17 09:44:03;;;;;;;17.02;7.03;;;;;;;24.92;37.58;102195.50;5115865;28;20027;-51
2022/06/17 09:46:40;;;;;;;12.75;6.97;;;;;;;25.14;39.37;102195.31;5115300;28;20031;-51
2022/06/17 09:49:09;;;;;;;20.38;7.00;;;;;;;25.23;36.69;102197.84;5115749;28;20520;-51
2022/06/17 09:51:41;;;;;;;13.98;6.38;;;;;;;25.41;37.57;102203.84;5116159;28;20118;-51
2022/06/17 09:54:31;;;;;;;15.05;6.40;;;;;;;25.52;38.92;102193.19;5115528;28;20019;-51
2022/06/17 09:57:26;;;;;;;17.05;6.47;;;;;;;25.63;37.49;102196.59;5115618;28;20055;-50
2022/06/17 10:00:01;;;;;;;16.60;6.57;;;;;;;25.80;37.66;102199.88;5112668;28;20047;-51
2022/06/17 10:02:48;;;;;;;17.45;7.15;;;;;;;26.14;37.70;102190.66;5115565;28;20031;-50
2022/06/17 10:05:31;;;;;;;18.17;6.50;;;;;;;26.33;36.36;102182.47;5115737;28;20057;-51
2022/06/17 10:08:06;;;;;;;14.75;5.97;;;;;;;26.37;34.83;102178.88;5114868;28;20019;-51
2022/06/17 10:10:45;;;;;;;18.60;6.35;;;;;;;26.47;35.68;102169.91;5115728;28;20027;-49
2022/06/17 10:13:37;;;;;;;14.75;6.80;;;;;;;26.58;37.06;102175.84;5114438;28;20032;-50
2022/06/17 10:19:18;;;;;;;14.27;5.60;;;;;;;27.33;34.02;102169.28;5115215;28;20547;-51
2022/06/17 10:21:55;;;;;;;11.82;5.82;;;;;;;27.46;32.39;102160.22;5114577;28;20028;-50
2022/06/17 10:24:56;;;;;;;14.67;5.43;;;;;;;27.71;33.26;102165.00;5115254;28;20386;-48
2022/06/17 10:27:27;;;;;;;14.20;5.45;;;;;;;28.12;31.75;102149.09;5114489;28;20110;-51
2022/06/17 10:29:58;;;;;;;10.70;5.15;;;;;;;28.38;31.12;102151.13;5114963;28;20028;-49
2022/06/17 10:32:25;;;;;;;13.43;5.25;;;;;;;29.15;30.45;102143.81;5115295;28;20023;-52
2022/06/17 10:34:54;;;;;;;14.75;5.47;;;;;;;30.05;29.30;102146.53;5114140;28;20477;-50
2022/06/17 10:37:20;;;;;;;16.15;5.10;;;;;;;30.84;28.73;102147.44;5114943;28;20030;-50
2022/06/17 10:39:46;;;;;;;9.23;4.90;;;;;;;31.86;27.10;102158.84;5115042;28;20115;-52
2022/06/17 10:42:16;;;;;;;10.68;4.78;;;;;;;32.12;26.47;102152.44;5113969;28;20023;-51
2022/06/17 10:44:49;;;;;;;16.75;5.20;;;;;;;31.95;25.36;102154.94;5114906;28;20099;-51
2022/06/17 10:47:34;;;;;;;9.68;4.13;;;;;;;32.27;26.63;102155.47;5114580;28;20020;-51
2022/06/17 10:50:06;;;;;;;12.15;4.40;;;;;;;32.27;25.95;102144.78;5113986;28;20028;-50
2022/06/17 10:52:35;;;;;;;12.07;4.53;;;;;;;32.49;26.51;102145.59;5114678;28;20026;-52
2022/06/17 10:55:03;;;;;;;15.07;4.28;;;;;;;32.72;24.63;102141.09;5113762;28;20532;-51
2022/06/17 10:57:31;;;;;;;11.43;3.88;;;;;;;32.83;24.40;102143.31;5114368;28;20044;-51
2022/06/17 10:59:56;;;;;;;13.55;3.90;;;;;;;32.55;24.08;102135.59;5114781;28;20028;-51
2022/06/17 11:02:23;;;;;;;8.10;4.03;;;;;;;32.85;23.75;102137.88;5113869;28;20462;-51
2022/06/17 11:04:51;;;;;;;8.18;3.50;;;;;;;32.80;23.92;102138.09;5114523;28;20050;-52
2022/06/17 11:07:22;;;;;;;12.73;3.40;;;;;;;32.66;23.98;102131.53;5114312;28;20023;-51
2022/06/17 11:10:18;;;;;;;12.32;3.75;;;;;;;32.50;24.55;102118.00;5113696;28;20099;-51
2022/06/17 11:12:54;;;;;;;12.20;3.95;;;;;;;32.00;25.56;102118.28;5114506;28;20031;-52
2022/06/17 11:15:34;;;;;;;10.95;3.33;;;;;;;32.21;25.13;102115.69;5114168;28;20387;-51
2022/06/17 11:18:17;;;;;;;9.05;3.35;;;;;;;32.59;24.80;102110.50;5113148;28;20383;-50
2022/06/17 11:20:54;;;;;;;7.18;3.10;;;;;;;32.62;24.25;102111.25;5114204;28;20476;-51
2022/06/17 11:23:22;;;;;;;6.00;3.25;;;;;;;32.86;23.40;102108.47;5113429;28;20173;-51
2022/06/17 11:25:55;;;;;;;5.65;3.22;;;;;;;33.78;23.55;102113.13;5114028;28;20543;-49
2022/06/17 11:28:24;;;;;;;6.50;3.15;;;;;;;34.01;23.25;102098.66;5113988;28;20027;-51
2022/06/17 11:31:01;;;;;;;8.98;2.95;;;;;;;34.31;22.27;102100.72;5113293;28;20019;-51
2022/06/17 11:33:32;;;;;;;6.50;2.58;;;;;;;34.52;20.78;102097.91;5114061;28;20100;-52
2022/06/17 11:36:06;;;;;;;5.03;2.72;;;;;;;34.24;21.75;102094.81;5113867;28;20046;-52
2022/06/17 11:38:33;;;;;;;6.40;3.08;;;;;;;33.84;21.18;102085.25;5112980;28;20051;-53
2022/06/17 11:41:00;;;;;;;11.85;2.90;;;;;;;33.81;22.22;102087.13;5113832;28;20102;-52